Time;durP1;ratioP1;P1;durP2;ratioP2;P2;SDS_P1;SDS_P2;PMS_P1;PMS_P2;Temp;Humidity;BMP_temperature;BMP_pressure;BME280_temperature;BME280_humidity;BME280_pressure;Samples;Min_cycle;Max_cycle;Signal;HPM_P1;HPM_P2
2022/05/04 01:09:32;;;;;;;9.73;3.50;;;;;;;7.76;76.53;101815.00;6028415;23;20017;-91
2022/05/04 01:11:57;;;;;;;10.83;3.73;;;;;;;7.78;76.36;101810.28;5013268;28;20034;-91
2022/05/04 01:16:54;;;;;;;11.88;3.63;;;;;;;7.88;75.75;101823.97;4991724;28;20042;-91
2022/05/04 01:19:23;;;;;;;11.20;4.15;;;;;;;7.90;76.03;101816.56;4994631;28;20041;-91
2022/05/04 01:21:49;;;;;;;8.50;3.40;;;;;;;7.95;75.79;101819.41;4995369;28;20030;-91
2022/05/04 01:24:15;;;;;;;10.60;3.53;;;;;;;7.96;75.80;101825.53;4991793;28;20068;-91
2022/05/04 01:26:40;;;;;;;8.13;3.27;;;;;;;7.93;75.55;101816.13;4991415;28;20034;-91
2022/05/04 01:29:27;;;;;;;14.98;3.75;;;;;;;8.01;75.79;101823.88;4975826;28;20476;-90
2022/05/04 01:31:53;;;;;;;15.67;3.30;;;;;;;8.03;75.31;101818.31;4993504;28;20154;-91
2022/05/04 01:34:26;;;;;;;13.03;3.70;;;;;;;8.04;75.01;101820.75;4982621;28;20310;-91
2022/05/04 01:36:51;;;;;;;8.75;2.92;;;;;;;8.07;74.84;101821.38;4956172;28;20070;-91
2022/05/04 01:39:17;;;;;;;10.90;3.47;;;;;;;8.11;74.87;101817.25;4973922;28;20054;-92
2022/05/04 01:44:26;;;;;;;12.43;3.33;;;;;;;8.04;74.26;101815.44;4989649;28;20398;-91
2022/05/04 01:46:51;;;;;;;13.23;3.40;;;;;;;8.07;74.56;101822.19;4973553;28;20035;-92
2022/05/04 01:49:16;;;;;;;8.87;3.03;;;;;;;8.05;74.73;101818.94;4973022;28;20031;-91
2022/05/04 01:51:43;;;;;;;11.90;3.27;;;;;;;8.08;74.65;101818.50;4973639;28;20074;-91
2022/05/04 01:54:09;;;;;;;12.63;2.90;;;;;;;8.09;74.63;101820.13;4990306;28;20034;-92
2022/05/04 01:56:38;;;;;;;11.37;3.37;;;;;;;8.08;74.91;101820.34;4956538;28;20518;-93
2022/05/04 01:59:09;;;;;;;10.50;3.05;;;;;;;8.10;74.42;101819.09;4972551;28;20442;-92
2022/05/04 02:01:37;;;;;;;15.52;3.20;;;;;;;8.03;74.54;101819.13;4973378;28;20076;-91
2022/05/04 02:04:03;;;;;;;8.57;3.15;;;;;;;8.06;74.25;101814.41;4979442;28;20026;-91
2022/05/04 02:06:29;;;;;;;14.00;3.22;;;;;;;8.06;74.44;101817.06;4974503;28;20045;-91
2022/05/04 02:08:58;;;;;;;12.57;2.67;;;;;;;8.04;73.98;101807.41;4960008;28;20023;-91
2022/05/04 02:11:24;;;;;;;11.10;3.30;;;;;;;8.03;74.30;101811.13;4983544;28;20102;-90
2022/05/04 02:13:50;;;;;;;9.48;3.00;;;;;;;7.99;74.18;101811.78;4984406;28;20104;-91
2022/05/04 02:16:16;;;;;;;9.97;2.80;;;;;;;7.98;74.60;101810.13;4970396;28;20034;-91
2022/05/04 02:18:41;;;;;;;10.07;3.00;;;;;;;7.92;74.64;101797.69;4985600;28;20859;-87
2022/05/04 02:21:07;;;;;;;10.60;3.10;;;;;;;7.99;74.21;101809.94;5005870;28;20034;-88
2022/05/04 02:23:32;;;;;;;16.42;3.38;;;;;;;7.94;74.36;101800.94;5005884;28;20062;-88
2022/05/04 02:25:58;;;;;;;10.50;3.07;;;;;;;7.96;74.40;101810.38;4993467;28;20485;-88
2022/05/04 02:28:25;;;;;;;11.20;2.70;;;;;;;7.96;74.60;101794.34;4993538;28;20090;-88
2022/05/04 02:30:51;;;;;;;13.85;2.95;;;;;;;7.98;74.14;101802.97;4992182;28;20100;-88
2022/05/04 02:33:16;;;;;;;14.27;3.10;;;;;;;8.00;74.42;101806.25;4977768;28;20098;-88
2022/05/04 02:38:25;;;;;;;8.38;2.97;;;;;;;8.00;74.12;101808.91;4975641;28;20050;-90
2022/05/04 02:40:51;;;;;;;13.30;3.20;;;;;;;8.02;74.00;101804.19;4968542;28;20022;-90
2022/05/04 02:43:16;;;;;;;14.43;3.20;;;;;;;8.08;74.02;101799.81;4989783;28;20030;-90
2022/05/04 02:45:45;;;;;;;13.07;3.40;;;;;;;8.02;73.85;101798.84;4954966;28;20042;-90
2022/05/04 02:48:10;;;;;;;10.13;3.92;;;;;;;8.08;73.75;101807.81;4979388;28;20026;-90
2022/05/04 02:50:36;;;;;;;10.67;2.97;;;;;;;7.96;73.79;101778.34;4991769;28;20085;-89
2022/05/04 02:53:04;;;;;;;15.80;3.53;;;;;;;8.04;73.58;101795.94;4980115;28;20054;-89
2022/05/04 02:55:33;;;;;;;14.52;3.47;;;;;;;8.02;73.65;101788.16;4988658;28;20034;-90
2022/05/04 02:58:00;;;;;;;12.55;3.33;;;;;;;7.89;73.74;101782.91;4991221;28;20434;-89
2022/05/04 03:00:30;;;;;;;10.77;2.95;;;;;;;7.91;73.42;101788.84;4972038;28;20592;-90
2022/05/04 03:03:05;;;;;;;12.30;3.30;;;;;;;7.89;73.80;101782.91;4991704;28;20084;-90
2022/05/04 03:05:40;;;;;;;16.23;3.15;;;;;;;7.79;74.02;101777.22;4971485;28;20034;-90
2022/05/04 03:08:15;;;;;;;11.07;3.00;;;;;;;7.78;73.81;101781.72;4991690;28;20478;-90
2022/05/04 03:13:44;;;;;;;15.87;3.30;;;;;;;7.67;74.68;101777.09;4989930;28;20094;-89
2022/05/04 03:16:13;;;;;;;12.40;3.53;;;;;;;7.69;74.92;101783.84;4958440;28;20305;-89
2022/05/04 03:18:47;;;;;;;9.18;3.33;;;;;;;7.66;75.07;101786.13;4959504;28;20121;-90
2022/05/04 03:21:12;;;;;;;15.60;3.92;;;;;;;7.63;74.76;101784.72;4961518;28;20130;-89
2022/05/04 03:23:47;;;;;;;11.23;3.20;;;;;;;7.50;74.88;101766.09;4962136;28;20050;-90
2022/05/04 03:26:18;;;;;;;20.63;3.95;;;;;;;7.51;74.81;101768.56;4988483;28;20026;-87
2022/05/04 03:29:03;;;;;;;;;;;;;;;;;;;;;
2022/05/04 03:31:34;;;;;;;10.77;3.35;;;;;;;7.62;74.82;101782.25;4987998;28;20042;-87
2022/05/04 03:34:06;;;;;;;11.98;3.67;;;;;;;7.60;74.90;101785.13;4992921;28;20033;-87
2022/05/04 03:36:40;;;;;;;12.85;3.70;;;;;;;7.42;75.16;101764.50;4992729;28;20053;-86
2022/05/04 03:39:25;;;;;;;17.52;3.58;;;;;;;7.42;75.52;101767.16;4993710;28;20030;-87
2022/05/04 03:42:04;;;;;;;10.63;3.28;;;;;;;7.43;75.19;101774.97;4992618;28;20041;-88
2022/05/04 03:44:31;;;;;;;12.00;3.17;;;;;;;7.37;75.78;101781.16;4995563;28;20039;-89
2022/05/04 03:46:56;;;;;;;8.07;3.30;;;;;;;7.32;75.87;101783.63;4997428;28;20317;-89
2022/05/04 03:49:23;;;;;;;12.15;3.60;;;;;;;7.31;76.21;101781.19;4998259;28;20092;-88
2022/05/04 03:51:50;;;;;;;16.33;3.57;;;;;;;7.27;76.18;101786.13;4994748;28;20022;-88
2022/05/04 03:54:18;;;;;;;10.18;3.72;;;;;;;7.20;76.74;101786.16;4986126;28;20037;-88
2022/05/04 03:56:43;;;;;;;11.63;3.78;;;;;;;7.22;76.54;101792.06;4983294;28;20031;-87
2022/05/04 03:59:09;;;;;;;8.40;3.40;;;;;;;7.27;76.53;101791.47;4983301;28;20037;-88
2022/05/04 04:01:36;;;;;;;15.73;3.55;;;;;;;7.29;76.47;101781.41;4974699;28;20482;-87
2022/05/04 04:04:02;;;;;;;9.00;3.05;;;;;;;7.33;76.47;101782.59;4966646;28;20018;-87
2022/05/04 04:06:27;;;;;;;13.75;3.92;;;;;;;7.31;76.63;101782.00;4970769;28;20038;-88
2022/05/04 04:08:53;;;;;;;11.77;3.50;;;;;;;7.32;76.36;101783.63;4974107;28;20530;-86
2022/05/04 04:11:19;;;;;;;14.97;3.90;;;;;;;7.24;76.87;101776.69;4975058;28;20027;-88
2022/05/04 04:13:44;;;;;;;14.35;3.65;;;;;;;7.21;77.40;101786.97;4980479;28;20026;-88
2022/05/04 04:16:10;;;;;;;11.40;3.37;;;;;;;7.21;76.85;101781.63;4991613;28;20054;-88
2022/05/04 04:18:35;;;;;;;12.60;3.53;;;;;;;7.20;77.27;101780.00;4993982;28;20032;-87
2022/05/04 04:23:44;;;;;;;13.90;3.47;;;;;;;7.14;76.90;101779.00;4986562;28;20144;-88
2022/05/04 04:26:10;;;;;;;9.87;3.60;;;;;;;7.19;76.89;101795.19;4973803;28;20493;-87
2022/05/04 04:28:38;;;;;;;11.50;3.60;;;;;;;7.17;77.13;101786.59;4973906;28;20054;-88
2022/05/04 04:31:04;;;;;;;12.00;3.40;;;;;;;7.17;77.02;101788.41;4991370;23;20030;-88
2022/05/04 04:33:32;;;;;;;11.40;3.80;;;;;;;7.15;77.18;101785.97;4995174;28;20933;-88
2022/05/04 04:41:20;;;;;;;12.27;3.85;;;;;;;7.11;77.14;101785.59;5162865;23;20062;-88
2022/05/04 04:43:57;;;;;;;13.80;4.38;;;;;;;7.09;77.54;101792.13;4962039;28;20061;-87
2022/05/04 04:46:32;;;;;;;13.90;3.53;;;;;;;7.12;77.35;101789.84;4970811;28;20095;-87
2022/05/04 04:49:16;;;;;;;10.43;3.35;;;;;;;7.19;77.17;101799.69;4938163;29;20078;-88
2022/05/04 04:51:41;;;;;;;13.80;3.60;;;;;;;7.16;77.49;101782.28;4955771;28;20071;-88
2022/05/04 04:54:13;;;;;;;14.37;3.60;;;;;;;7.18;77.36;101782.88;4954958;28;20050;-88
2022/05/04 04:56:53;;;;;;;10.80;3.78;;;;;;;7.18;77.25;101784.72;4958995;28;20031;-91
2022/05/04 04:59:31;;;;;;;11.95;3.65;;;;;;;7.22;77.04;101785.94;4956993;28;20031;-90
2022/05/04 05:01:56;;;;;;;13.38;3.72;;;;;;;7.19;77.20;101783.69;4960953;28;20471;-87
2022/05/04 05:04:24;;;;;;;16.13;4.23;;;;;;;7.29;77.26;101794.75;4961777;28;20037;-87
2022/05/04 05:06:49;;;;;;;16.40;4.05;;;;;;;7.23;77.31;101784.91;5238377;23;20063;-87
2022/05/04 05:09:14;;;;;;;17.23;4.50;;;;;;;7.26;76.83;101795.97;5029618;28;20026;-87
2022/05/04 05:17:01;;;;;;;12.65;4.53;;;;;;;7.37;77.10;101791.81;4973912;28;20046;-88
2022/05/04 05:19:26;;;;;;;7.97;3.50;;;;;;;7.73;75.91;101792.25;4963241;29;20034;-87
2022/05/04 05:21:52;;;;;;;19.03;4.27;;;;;;;7.81;75.82;101791.97;4979872;28;20353;-92
2022/05/04 05:24:17;;;;;;;13.77;4.50;;;;;;;8.18;74.94;101800.13;4949562;28;20126;-88
2022/05/04 05:26:43;;;;;;;12.27;4.17;;;;;;;8.50;73.29;101799.28;4974583;28;20109;-89
2022/05/04 05:29:09;;;;;;;12.38;4.20;;;;;;;8.73;72.22;101795.97;4970473;28;20121;-88
2022/05/04 05:31:35;;;;;;;10.07;3.97;;;;;;;8.92;71.04;101799.50;4973780;28;20110;-89
2022/05/04 06:20:18;;;;;;;17.63;4.00;;;;;;;9.15;70.15;101818.56;6068757;23;20099;-85
2022/05/04 06:22:43;;;;;;;12.50;3.90;;;;;;;9.18;69.15;101818.13;4965735;28;20369;-86
2022/05/04 06:25:09;;;;;;;7.65;3.30;;;;;;;9.24;68.74;101830.56;4977505;28;20454;-85
2022/05/04 06:27:35;;;;;;;14.70;4.40;;;;;;;9.18;68.65;101820.78;4966966;28;20061;-85
2022/05/04 06:35:51;;;;;;;16.60;4.27;;;;;;;9.45;67.81;101829.31;4939440;28;20078;-89
2022/05/04 06:38:16;;;;;;;11.43;4.57;;;;;;;9.48;67.85;101828.84;4940300;28;20371;-85
2022/05/04 06:40:41;;;;;;;14.83;4.47;;;;;;;9.64;67.59;101830.06;4959075;28;20480;-85
2022/05/04 06:43:08;;;;;;;14.30;4.17;;;;;;;9.73;66.62;101817.19;4989669;28;20038;-85
2022/05/04 06:45:33;;;;;;;9.90;4.05;;;;;;;10.03;65.95;101831.59;4976326;28;20396;-86
2022/05/04 06:47:59;;;;;;;10.40;4.40;;;;;;;10.29;65.64;101836.53;4983071;28;20037;-86
2022/05/04 06:50:24;;;;;;;13.57;4.80;;;;;;;10.54;64.49;101813.28;4980778;28;20034;-86
2022/05/04 06:52:49;;;;;;;12.67;4.17;;;;;;;10.83;63.03;101832.97;4986171;28;20029;-87
2022/05/04 06:55:15;;;;;;;11.00;4.37;;;;;;;11.00;62.34;101838.41;4979124;28;20022;-90
2022/05/04 06:57:44;;;;;;;12.20;4.53;;;;;;;11.23;61.54;101834.06;4989775;28;20042;-95
2022/05/04 07:00:12;;;;;;;12.00;3.97;;;;;;;11.34;60.95;101841.25;4990602;28;20113;-93
2022/05/04 07:02:38;;;;;;;18.42;4.20;;;;;;;11.42;61.14;101839.25;4991125;28;20061;-94
2022/05/04 07:05:05;;;;;;;13.67;4.20;;;;;;;11.42;60.92;101837.38;4996146;28;20066;-95
2022/05/04 07:07:30;;;;;;;9.55;4.10;;;;;;;11.51;60.45;101840.50;4990641;28;20030;-93
2022/05/04 07:09:56;;;;;;;13.97;4.00;;;;;;;11.62;60.65;101836.97;5043366;23;20508;-94
2022/05/04 07:12:33;;;;;;;10.87;4.00;;;;;;;11.54;60.48;101823.91;4994700;28;20027;-93
2022/05/04 07:15:08;;;;;;;19.90;4.77;;;;;;;11.28;60.78;101801.97;4994996;28;20672;-93
2022/05/04 07:17:36;;;;;;;19.05;4.63;;;;;;;11.21;60.13;101804.81;4997330;28;20038;-93
2022/05/04 07:20:03;;;;;;;14.65;4.57;;;;;;;11.09;59.87;101817.41;4994056;28;20362;-93
2022/05/04 07:22:28;;;;;;;13.20;4.00;;;;;;;11.11;60.81;101814.50;4994284;28;20113;-93
2022/05/04 07:24:56;;;;;;;13.40;3.73;;;;;;;11.04;60.64;101815.44;4997511;28;20077;-92
2022/05/04 07:27:22;;;;;;;15.15;3.88;;;;;;;11.02;59.18;101803.34;4993164;28;20034;-92
2022/05/04 07:29:48;;;;;;;11.18;4.07;;;;;;;11.13;59.61;101812.41;5008436;23;20026;-93
2022/05/04 07:34:40;;;;;;;15.55;4.18;;;;;;;11.16;58.36;101809.22;5016437;23;20045;-92
2022/05/04 07:37:06;;;;;;;16.13;3.93;;;;;;;11.24;59.24;101824.97;4993519;28;20034;-90
2022/05/04 07:42:24;;;;;;;16.17;4.13;;;;;;;11.39;58.60;101829.81;4994316;28;20397;-91
2022/05/04 07:45:00;;;;;;;14.70;4.28;;;;;;;11.48;58.98;101824.91;4973529;28;20077;-88
2022/05/04 07:47:28;;;;;;;12.18;4.45;;;;;;;11.49;58.89;101816.59;4991276;28;20101;-88
2022/05/04 07:50:00;;;;;;;14.90;4.10;;;;;;;11.65;59.47;101824.91;4993526;28;20081;-88
2022/05/04 07:52:26;;;;;;;16.40;4.67;;;;;;;11.88;59.34;101823.19;4974915;28;20328;-88
2022/05/04 07:54:52;;;;;;;13.20;4.45;;;;;;;11.94;57.61;101835.66;4992716;28;20066;-87
2022/05/04 07:57:18;;;;;;;9.88;4.35;;;;;;;11.84;56.15;101832.78;4976901;28;20102;-88
2022/05/04 08:04:16;;;;;;;10.18;4.50;;;;;;;11.88;57.30;101818.63;4975885;28;20035;-88
2022/05/04 08:05:12;;;;;;;11.05;4.50;;;;;;;12.43;57.04;101840.47;4979473;28;20105;-88
2022/05/04 08:07:38;;;;;;;14.00;5.40;;;;;;;12.36;55.37;101832.59;4984290;28;20027;-88
2022/05/04 08:10:03;;;;;;;14.00;5.03;;;;;;;12.49;55.89;101838.72;4974255;28;20053;-90
2022/05/04 08:12:29;;;;;;;13.23;4.67;;;;;;;12.56;55.73;101839.34;4973335;28;20023;-89
2022/05/04 08:14:54;;;;;;;14.00;5.50;;;;;;;12.62;55.34;101832.97;4986352;28;20085;-89
2022/05/04 08:17:20;;;;;;;15.00;5.07;;;;;;;12.57;54.94;101825.66;4991800;28;20065;-89
2022/05/04 08:19:45;;;;;;;13.30;4.73;;;;;;;12.72;55.47;101830.44;4979592;28;20114;-86
2022/05/04 08:22:14;;;;;;;18.00;5.50;;;;;;;12.81;53.97;101830.81;4980738;28;20065;-85
2022/05/04 08:24:39;;;;;;;12.90;5.60;;;;;;;12.90;53.45;101839.28;4979726;28;20045;-85
2022/05/04 08:27:05;;;;;;;13.98;5.68;;;;;;;12.90;54.72;101827.72;4986054;28;20038;-85
2022/05/04 08:29:30;;;;;;;12.40;6.07;;;;;;;12.94;54.13;101820.78;4986676;28;20030;-85
2022/05/04 08:31:58;;;;;;;18.10;5.90;;;;;;;13.12;54.91;101825.84;4960345;28;20038;-84
2022/05/04 08:34:23;;;;;;;17.85;5.03;;;;;;;13.37;54.68;101837.97;4985937;28;20039;-83
2022/05/04 08:36:49;;;;;;;19.83;6.20;;;;;;;13.41;52.67;101839.13;4986326;28;20370;-84
2022/05/04 08:39:14;;;;;;;18.63;6.03;;;;;;;13.47;52.65;101831.91;4973192;28;20019;-85
2022/05/04 08:41:41;;;;;;;12.77;5.63;;;;;;;13.57;51.32;101832.03;4972544;28;20483;-85
2022/05/04 08:44:11;;;;;;;12.27;5.60;;;;;;;13.72;51.42;101834.06;4973272;28;20031;-86
2022/05/04 08:46:40;;;;;;;11.30;5.53;;;;;;;13.82;52.28;101843.31;4991293;28;20389;-86
2022/05/04 08:49:06;;;;;;;12.90;5.57;;;;;;;13.85;52.16;101832.84;4992597;28;20106;-87
2022/05/04 08:51:35;;;;;;;13.93;5.30;;;;;;;14.06;51.62;101830.31;4992259;28;20030;-86
2022/05/04 08:54:01;;;;;;;10.73;5.68;;;;;;;14.28;49.87;101827.53;4987166;28;20082;-89
2022/05/04 08:56:28;;;;;;;13.35;5.95;;;;;;;14.27;50.86;101823.19;4983430;28;20129;-88
2022/05/04 08:58:54;;;;;;;11.93;5.60;;;;;;;14.34;49.73;101813.03;4954755;28;20042;-88
2022/05/04 09:01:39;;;;;;;13.07;5.73;;;;;;;14.12;49.14;101821.22;4966990;28;20126;-89
2022/05/04 09:04:09;;;;;;;12.63;5.67;;;;;;;13.99;49.06;101829.72;4968548;28;20305;-90
2022/05/04 09:06:48;;;;;;;13.73;5.65;;;;;;;13.95;50.73;101825.94;4962196;28;20077;-88
2022/05/04 09:09:44;;;;;;;12.05;5.60;;;;;;;14.26;50.03;101829.66;4966104;28;20042;-86
2022/05/04 09:12:16;;;;;;;14.48;5.93;;;;;;;14.42;50.45;101827.09;4961101;28;20027;-96
2022/05/04 09:14:43;;;;;;;12.15;5.75;;;;;;;14.38;49.09;101829.47;4960944;28;20117;-94
2022/05/04 09:17:10;;;;;;;14.05;6.10;;;;;;;14.43;49.03;101815.22;4988698;28;20041;-94
2022/05/04 09:19:38;;;;;;;14.45;6.00;;;;;;;14.68;49.00;101811.91;4986989;28;20105;-95
2022/05/04 09:22:17;;;;;;;12.38;5.80;;;;;;;14.78;49.25;101808.47;4973988;28;20054;-93
2022/05/04 09:24:44;;;;;;;13.63;5.60;;;;;;;14.83;47.94;101805.78;4981738;28;20053;-88
2022/05/04 09:27:09;;;;;;;13.87;5.70;;;;;;;14.82;46.91;101804.16;4975237;28;20045;-90
2022/05/04 09:29:36;;;;;;;13.63;5.67;;;;;;;14.81;48.04;101805.22;4991536;28;20289;-92
2022/05/04 09:32:17;;;;;;;17.80;6.10;;;;;;;15.15;48.18;101807.53;4991992;28;20130;-91
2022/05/04 09:34:46;;;;;;;14.87;6.00;;;;;;;15.51;47.39;101818.44;4982506;28;20026;-91
2022/05/04 09:45:42;;;;;;;16.92;6.38;;;;;;;15.64;46.56;101806.28;4979847;28;20047;-88
2022/05/04 09:57:59;;;;;;;13.75;5.75;;;;;;;15.97;43.79;101815.00;5008477;28;20049;-92
2022/05/04 10:00:52;;;;;;;14.70;5.57;;;;;;;15.95;45.80;101809.06;4994237;28;20042;-90
2022/05/04 10:03:26;;;;;;;11.47;6.07;;;;;;;15.98;43.84;101799.59;4991347;28;20034;-91
2022/05/04 10:06:02;;;;;;;17.83;6.37;;;;;;;15.97;44.77;101774.47;4990998;28;20343;-89
2022/05/04 10:08:34;;;;;;;10.93;6.10;;;;;;;16.16;45.23;101769.31;4972347;28;20113;-91
2022/05/04 10:10:59;;;;;;;11.20;6.40;;;;;;;16.21;43.50;101787.41;4991770;28;20034;-93
2022/05/04 10:13:26;;;;;;;17.00;6.40;;;;;;;16.05;44.67;101790.13;4987831;28;20036;-95
2022/05/04 10:15:55;;;;;;;16.75;6.60;;;;;;;15.98;44.31;101778.75;5001270;28;20042;-96
2022/05/04 10:18:34;;;;;;;13.73;6.33;;;;;;;16.17;44.38;101784.44;5126962;23;20228;-96
2022/05/04 10:21:13;;;;;;;14.60;6.47;;;;;;;16.10;44.86;101772.28;4992046;28;20354;-96
2022/05/04 10:24:07;;;;;;;12.43;6.75;;;;;;;16.00;44.36;101789.31;4981561;28;20031;-94
2022/05/04 10:26:38;;;;;;;13.07;7.18;;;;;;;15.89;44.76;101778.50;5005161;28;20053;-93
2022/05/04 10:36:49;;;;;;;12.18;5.90;;;;;;;16.42;43.88;101769.25;5004444;28;20048;-91
2022/05/04 10:39:22;;;;;;;17.13;6.38;;;;;;;16.69;42.44;101784.31;4929566;29;20423;-90
2022/05/04 10:41:48;;;;;;;10.77;5.43;;;;;;;16.85;42.76;101768.00;4938580;29;20059;-93
2022/05/04 10:47:01;;;;;;;13.25;6.93;;;;;;;17.01;42.49;101772.31;5277483;23;20426;-90
2022/05/04 10:50:12;;;;;;;13.65;6.45;;;;;;;17.03;42.91;101782.88;5002170;28;20089;-92
2022/05/04 10:53:16;;;;;;;13.13;6.72;;;;;;;17.16;43.00;101795.00;4982730;28;20039;-96
2022/05/04 10:59:41;;;;;;;15.25;6.78;;;;;;;17.45;42.99;101784.22;4897128;29;20044;-88
2022/05/04 11:05:47;;;;;;;13.07;6.25;;;;;;;17.73;42.08;101753.94;4895186;29;20043;-93
2022/05/04 11:09:12;;;;;;;13.70;7.15;;;;;;;17.77;41.99;101768.56;4894520;29;20032;-95
2022/05/04 11:18:28;;;;;;;13.88;6.97;;;;;;;17.16;42.34;101741.63;4832618;29;20073;-95
2022/05/04 11:21:06;;;;;;;;;;;;;;;;;;;;;
2022/05/04 11:26:40;;;;;;;14.65;6.85;;;;;;;18.31;40.05;101762.13;4819732;29;20526;-90
2022/05/04 11:32:43;;;;;;;11.55;6.07;;;;;;;18.25;39.78;101748.91;4867371;29;20044;-93
2022/05/04 11:35:53;;;;;;;14.45;7.07;;;;;;;18.56;39.78;101767.53;4896994;29;20049;-93
2022/05/04 11:38:24;;;;;;;10.60;6.43;;;;;;;18.46;38.26;101761.16;4889196;29;20406;-92
2022/05/04 11:40:50;;;;;;;13.77;6.83;;;;;;;18.47;38.11;101756.53;4889191;29;20116;-93
2022/05/04 11:43:27;;;;;;;10.27;6.43;;;;;;;18.56;39.10;101762.13;4973473;28;20289;-92
2022/05/04 11:45:54;;;;;;;11.85;6.55;;;;;;;18.58;38.64;101752.59;4976071;28;20035;-94
2022/05/04 11:48:20;;;;;;;14.95;6.32;;;;;;;18.70;38.45;101749.47;4993794;28;20038;-93
2022/05/04 11:50:46;;;;;;;13.38;6.38;;;;;;;18.76;37.73;101753.72;4981283;28;20035;-94
2022/05/04 11:53:12;;;;;;;10.97;6.53;;;;;;;18.64;37.62;101737.06;4984457;28;20087;-91
2022/05/04 11:55:37;;;;;;;14.23;6.90;;;;;;;18.69;37.09;101744.31;4978441;28;20309;-93
2022/05/04 11:58:14;;;;;;;15.18;6.70;;;;;;;18.90;39.22;101737.53;4994758;28;20061;-91
2022/05/04 12:00:41;;;;;;;10.47;6.20;;;;;;;19.09;37.09;101736.78;4976461;28;20034;-92
2022/05/04 12:03:09;;;;;;;14.10;6.60;;;;;;;19.22;37.58;101730.59;4981677;28;20308;-91
2022/05/04 12:05:38;;;;;;;12.43;7.05;;;;;;;19.24;38.20;101729.50;4993814;28;20031;-91
2022/05/04 12:08:04;;;;;;;15.55;6.57;;;;;;;19.38;37.07;101730.34;4992922;28;20030;-95
2022/05/04 12:10:30;;;;;;;12.85;6.55;;;;;;;19.62;36.79;101738.41;4975547;28;20118;-92
2022/05/04 12:12:58;;;;;;;10.70;5.72;;;;;;;19.81;36.24;101727.47;4993198;28;20408;-92
2022/05/04 12:15:26;;;;;;;11.32;6.55;;;;;;;19.72;36.17;101723.03;4976149;28;20046;-92
2022/05/04 12:18:05;;;;;;;15.07;6.25;;;;;;;19.49;36.82;101711.97;5016579;23;20053;-92
2022/05/04 12:20:40;;;;;;;11.30;6.00;;;;;;;19.73;35.80;101733.59;4979250;28;20085;-92
2022/05/04 12:23:30;;;;;;;12.90;6.35;;;;;;;19.54;34.88;101732.84;4974665;28;20039;-95
2022/05/04 12:26:15;;;;;;;12.23;5.87;;;;;;;19.63;35.99;101731.06;4997159;28;20023;-93
2022/05/04 12:34:19;;;;;;;13.88;6.10;;;;;;;19.57;35.91;101715.94;4974426;28;20057;-92
2022/05/04 12:36:53;;;;;;;16.10;7.13;;;;;;;19.70;36.72;101719.78;4987215;28;20509;-94
2022/05/04 12:39:22;;;;;;;12.95;7.47;;;;;;;19.36;36.36;101694.50;4993069;28;20381;-93
2022/05/04 12:41:48;;;;;;;14.88;6.60;;;;;;;19.68;36.47;101711.94;4992093;28;20037;-93
2022/05/04 12:44:23;;;;;;;16.00;7.20;;;;;;;19.68;35.98;101699.16;4993029;28;20528;-92
2022/05/04 12:46:53;;;;;;;15.05;7.20;;;;;;;19.80;37.01;101695.94;4993756;28;20034;-92
2022/05/04 12:49:21;;;;;;;17.03;7.07;;;;;;;20.10;36.78;101707.38;4993368;28;20030;-94
2022/05/04 12:51:49;;;;;;;10.03;6.33;;;;;;;20.42;36.13;101702.16;5000995;28;20294;-93
2022/05/04 12:54:16;;;;;;;17.02;6.70;;;;;;;20.65;34.01;101699.50;4994179;28;20465;-93
2022/05/04 12:56:46;;;;;;;12.43;6.72;;;;;;;20.75;33.23;101707.44;4990765;28;20548;-92
2022/05/04 12:59:20;;;;;;;13.63;6.57;;;;;;;20.63;35.23;101709.91;4992240;28;20026;-95
2022/05/04 13:01:48;;;;;;;12.82;6.55;;;;;;;20.69;34.50;101704.03;4992758;28;20101;-93
2022/05/04 13:04:15;;;;;;;15.85;7.00;;;;;;;20.58;34.86;101710.81;4991918;28;20045;-94
2022/05/04 13:06:41;;;;;;;14.20;7.55;;;;;;;20.75;33.92;101704.72;4991663;28;20031;-94
2022/05/04 13:09:07;;;;;;;14.82;6.90;;;;;;;20.89;34.73;101710.19;4992509;28;20023;-94
2022/05/04 13:11:34;;;;;;;17.97;7.37;;;;;;;20.78;34.55;101703.34;4991444;28;20061;-95
2022/05/04 13:14:00;;;;;;;13.80;6.80;;;;;;;20.86;34.35;101711.59;4993078;28;20022;-94
2022/05/04 13:16:25;;;;;;;11.47;6.73;;;;;;;20.72;34.39;101694.47;4991104;28;20047;-96
2022/05/04 13:18:50;;;;;;;10.47;6.63;;;;;;;20.96;33.86;101698.84;4993490;28;20038;-96
2022/05/04 13:22:03;;;;;;;15.18;7.03;;;;;;;20.72;33.90;101697.19;5116302;27;20877;-93
2022/05/04 13:24:28;;;;;;;15.63;6.15;;;;;;;20.50;33.94;101704.19;5109256;28;20042;-93
2022/05/04 13:26:53;;;;;;;10.37;6.53;;;;;;;20.68;33.25;101698.91;5107240;28;20024;-94
2022/05/04 13:29:19;;;;;;;13.23;6.23;;;;;;;20.75;33.42;101693.03;5106091;28;20533;-94
2022/05/04 13:31:44;;;;;;;10.37;5.87;;;;;;;20.62;33.26;101686.50;5107882;28;20027;-94
2022/05/04 13:34:09;;;;;;;10.43;5.90;;;;;;;20.60;33.92;101678.66;5103231;28;20030;-95
2022/05/04 13:36:34;;;;;;;11.53;5.87;;;;;;;20.93;32.41;101688.56;5101723;28;20047;-93
2022/05/04 13:39:00;;;;;;;10.27;5.77;;;;;;;20.90;32.82;101684.56;5106065;28;20108;-94
2022/05/04 13:41:27;;;;;;;15.20;6.15;;;;;;;21.01;32.29;101683.19;5092863;28;20048;-94
2022/05/04 13:43:52;;;;;;;14.60;6.10;;;;;;;21.25;32.66;101684.81;5093992;28;20032;-96
2022/05/04 13:46:18;;;;;;;15.65;5.88;;;;;;;21.48;31.97;101682.88;5108641;28;20076;-94
2022/05/04 13:48:44;;;;;;;12.70;6.30;;;;;;;21.47;32.72;101684.00;5113972;28;20478;-96
2022/05/04 13:53:54;;;;;;;11.27;6.45;;;;;;;21.12;32.94;101674.78;5118131;28;20141;-95
2022/05/04 13:56:19;;;;;;;16.30;6.70;;;;;;;20.77;33.62;101674.50;5115131;28;20044;-93
2022/05/04 13:58:47;;;;;;;13.87;7.37;;;;;;;20.55;33.67;101673.31;5105251;28;20032;-96
2022/05/04 14:01:12;;;;;;;10.88;5.75;;;;;;;20.65;34.66;101667.63;5103880;28;20040;-96
2022/05/04 14:03:40;;;;;;;14.43;6.65;;;;;;;20.90;32.71;101662.75;5098874;28;20059;-96
2022/05/04 14:06:06;;;;;;;12.82;6.70;;;;;;;20.65;33.52;101670.34;5109912;28;20383;-93
2022/05/04 14:08:31;;;;;;;22.35;7.10;;;;;;;20.47;34.13;101668.56;5094474;28;20078;-95
2022/05/04 14:11:01;;;;;;;11.17;7.17;;;;;;;20.52;34.90;101660.31;5088332;28;20474;-92
2022/05/04 14:13:27;;;;;;;15.15;7.40;;;;;;;20.51;33.49;101661.41;5105670;28;20046;-94
2022/05/04 14:16:00;;;;;;;13.63;6.43;;;;;;;20.87;34.85;101666.09;5106811;28;20482;-96
2022/05/04 14:18:27;;;;;;;11.60;6.70;;;;;;;21.15;33.75;101663.28;5126312;28;20081;-96
2022/05/04 14:20:57;;;;;;;16.27;6.20;;;;;;;21.36;34.21;101660.84;5117816;28;20058;-95
2022/05/04 14:25:59;;;;;;;16.42;7.43;;;;;;;21.25;32.64;101640.41;5041079;23;20088;-96
2022/05/04 14:28:35;;;;;;;15.32;7.00;;;;;;;21.18;33.91;101666.19;5038472;28;20034;-95
2022/05/04 14:31:13;;;;;;;11.98;7.18;;;;;;;21.04;34.83;101630.03;5374310;23;20009;-96
2022/05/04 14:33:53;;;;;;;16.10;7.32;;;;;;;21.42;34.24;101635.06;5005939;28;20038;-96
2022/05/04 14:36:18;;;;;;;13.90;7.50;;;;;;;21.69;31.98;101662.50;5460578;22;20048;-94
2022/05/04 14:38:46;;;;;;;15.80;7.47;;;;;;;21.62;32.74;101661.03;5086700;28;20028;-96
2022/05/04 14:41:23;;;;;;;17.45;7.47;;;;;;;21.37;33.29;101642.56;5084401;28;20117;-96
2022/05/04 14:43:48;;;;;;;14.30;7.50;;;;;;;21.48;33.12;101649.38;5062888;28;20017;-95
2022/05/04 14:48:49;;;;;;;11.10;6.82;;;;;;;21.01;32.44;101636.88;5318575;22;20032;-96
2022/05/04 14:56:31;;;;;;;12.57;6.25;;;;;;;20.92;33.21;101632.47;5174807;22;20083;-95
2022/05/04 14:58:56;;;;;;;9.15;6.13;;;;;;;21.03;33.24;101631.94;5089260;28;20032;-95
2022/05/04 15:01:22;;;;;;;12.53;6.27;;;;;;;21.23;32.01;101627.09;5077298;28;20040;-96
2022/05/04 15:06:47;;;;;;;17.70;6.05;;;;;;;21.35;31.50;101628.47;5083837;28;20038;-96
2022/05/04 15:09:36;;;;;;;16.30;6.43;;;;;;;21.33;32.52;101623.31;5062303;28;20090;-95
2022/05/04 15:12:08;;;;;;;15.68;6.40;;;;;;;21.00;31.62;101629.81;5069812;28;20039;-96
2022/05/04 15:14:49;;;;;;;11.70;6.20;;;;;;;21.18;32.03;101627.25;5081264;28;20029;-96
2022/05/04 15:17:21;;;;;;;12.13;5.93;;;;;;;21.19;32.40;101634.28;5090812;28;20294;-96
2022/05/04 15:19:49;;;;;;;10.90;6.30;;;;;;;20.97;32.92;101646.81;5081464;28;20028;-96